createdAt,value
2023-05-02T00:00:10.420Z,0.5105
2023-05-02T00:01:11.821Z,0.5094
2023-05-02T00:02:13.231Z,0.5052
2023-05-02T00:03:14.666Z,0.4959
2023-05-02T00:04:16.137Z,0.4940
2023-05-02T00:05:17.457Z,0.4943
2023-05-02T00:06:18.948Z,0.5030
2023-05-02T00:07:20.349Z,0.5018
2023-05-02T00:08:21.718Z,0.4926
2023-05-02T00:09:23.290Z,0.5000
2023-05-02T00:10:24.643Z,0.5057
2023-05-02T00:11:26.143Z,0.5147
2023-05-02T00:12:27.402Z,0.5047
2023-05-02T00:13:28.913Z,0.4812
2023-05-02T00:14:30.309Z,0.4715
2023-05-02T00:15:31.780Z,0.4658
2023-05-02T00:16:33.302Z,0.4718
2023-05-02T00:17:34.690Z,0.4837
2023-05-02T00:18:36.025Z,0.4806
2023-05-02T00:19:37.447Z,0.4846
2023-05-02T00:20:38.966Z,0.4956
2023-05-02T00:21:40.326Z,0.4905
2023-05-02T00:22:41.672Z,0.4941
2023-05-02T00:23:43.118Z,0.4941
2023-05-02T00:24:44.518Z,0.4995
2023-05-02T00:25:46.007Z,0.5028
2023-05-02T00:26:47.463Z,0.5131
2023-05-02T00:27:48.797Z,0.5159
2023-05-02T00:28:50.145Z,0.5210
2023-05-02T00:29:51.671Z,0.5088
2023-05-02T00:30:53.090Z,0.5042
2023-05-02T00:31:54.569Z,0.5099
2023-05-02T00:32:55.973Z,0.5180
2023-05-02T00:33:57.390Z,0.5258
2023-05-02T00:34:58.766Z,0.5102
2023-05-02T00:36:00.210Z,0.5079
2023-05-02T00:37:01.600Z,0.5052
2023-05-02T00:38:03.102Z,0.5091
2023-05-02T00:39:04.409Z,0.5100
2023-05-02T00:40:05.889Z,0.5061
2023-05-02T00:41:07.237Z,0.5048
2023-05-02T00:42:08.694Z,0.5123
2023-05-02T00:43:10.098Z,0.5129
2023-05-02T00:44:11.537Z,0.5139
2023-05-02T00:45:12.920Z,0.5185
2023-05-02T00:46:14.374Z,0.5244
2023-05-02T00:47:15.793Z,0.5263
2023-05-02T00:48:17.205Z,0.5157
2023-05-02T00:49:18.541Z,0.5168
2023-05-02T00:50:20.036Z,0.5211
2023-05-02T00:51:21.418Z,0.5157
2023-05-02T00:52:22.931Z,0.5194
2023-05-02T00:53:24.264Z,0.5221
2023-05-02T00:54:25.726Z,0.5190
2023-05-02T00:55:27.103Z,0.5140
2023-05-02T00:56:28.545Z,0.5142
2023-05-02T00:57:30.006Z,0.5108
2023-05-02T00:58:31.418Z,0.5072
2023-05-02T00:59:32.798Z,0.5021
2023-05-02T01:00:34.246Z,0.4956
2023-05-02T01:01:35.576Z,0.4901
2023-05-02T01:02:37.279Z,0.4870
2023-05-02T01:03:38.590Z,0.4854
2023-05-02T01:04:39.980Z,0.4856
2023-05-02T01:05:41.329Z,0.4812
2023-05-02T01:06:42.898Z,0.4812
2023-05-02T01:07:44.179Z,0.4908
2023-05-02T01:08:45.600Z,0.4870
2023-05-02T01:09:46.991Z,0.4824
2023-05-02T01:10:48.416Z,0.4832
2023-05-02T01:11:49.820Z,0.4867
2023-05-02T01:12:51.307Z,0.4921
2023-05-02T01:13:52.662Z,0.4988
2023-05-02T01:14:54.134Z,0.4986
2023-05-02T01:15:55.506Z,0.4916
2023-05-02T01:16:56.996Z,0.4896
2023-05-02T01:17:58.499Z,0.4961
2023-05-02T01:18:59.818Z,0.4957
2023-05-02T01:20:01.331Z,0.5015
2023-05-02T01:21:02.657Z,0.4944
2023-05-02T01:22:04.066Z,0.4950
2023-05-02T01:23:05.456Z,0.5024
2023-05-02T01:24:06.863Z,0.5019
2023-05-02T01:25:08.178Z,0.4937
2023-05-02T01:26:09.715Z,0.4940
2023-05-02T01:27:11.105Z,0.4883
2023-05-02T01:28:12.595Z,0.4912
2023-05-02T01:29:13.859Z,0.4867
2023-05-02T01:30:15.400Z,0.4854
2023-05-02T01:31:16.826Z,0.4948
2023-05-02T01:32:18.250Z,0.4844
2023-05-02T01:33:19.684Z,0.4839
2023-05-02T01:34:21.091Z,0.4806
2023-05-02T01:35:22.402Z,0.4751
2023-05-02T01:36:23.943Z,0.4709
2023-05-02T01:37:25.328Z,0.4770
2023-05-02T01:38:26.842Z,0.4723
2023-05-02T01:39:28.122Z,0.4713
2023-05-02T01:40:29.585Z,0.4788
2023-05-02T01:41:30.974Z,0.4804
2023-05-02T01:42:32.423Z,0.4711
2023-05-02T01:43:33.834Z,0.4678
2023-05-02T01:44:35.260Z,0.4697
2023-05-02T01:45:36.621Z,0.4739
2023-05-02T01:46:38.176Z,0.4796
2023-05-02T01:47:39.509Z,0.4774
2023-05-02T01:48:40.975Z,0.4774
2023-05-02T01:49:42.342Z,0.4717
2023-05-02T01:50:43.800Z,0.4790
2023-05-02T01:51:45.117Z,0.4754
2023-05-02T01:52:46.641Z,0.4648
2023-05-02T01:53:48.094Z,0.4652
2023-05-02T01:54:49.469Z,0.4620
2023-05-02T01:55:50.844Z,0.4570
2023-05-02T01:56:52.310Z,0.4593
2023-05-02T01:57:53.693Z,0.4624
2023-05-02T01:58:55.190Z,0.4607
2023-05-02T01:59:56.580Z,0.4589
2023-05-02T02:00:58.022Z,0.4603
2023-05-02T02:01:59.362Z,0.4717
2023-05-02T02:03:00.808Z,0.4813
2023-05-02T02:04:02.339Z,0.4818
2023-05-02T02:05:03.699Z,0.4832
2023-05-02T02:06:05.127Z,0.4835
2023-05-02T02:07:06.650Z,0.4783
2023-05-02T02:08:07.948Z,0.4783
2023-05-02T02:09:09.462Z,0.4728
2023-05-02T02:10:10.788Z,0.4764
2023-05-02T02:11:12.235Z,0.4651
2023-05-02T02:12:13.652Z,0.4640
2023-05-02T02:13:15.147Z,0.4662
2023-05-02T02:14:16.499Z,0.4639
2023-05-02T02:15:17.968Z,0.4654
2023-05-02T02:16:19.400Z,0.4674
2023-05-02T02:17:20.762Z,0.4630
2023-05-02T02:18:22.159Z,0.4541
2023-05-02T02:19:23.664Z,0.4591
2023-05-02T02:20:25.068Z,0.4621
2023-05-02T02:21:26.434Z,0.4668
2023-05-02T02:22:27.852Z,0.4692
2023-05-02T02:23:29.341Z,0.4726
2023-05-02T02:24:30.738Z,0.4793
2023-05-02T02:25:32.173Z,0.4751
2023-05-02T02:26:33.530Z,0.4859
2023-05-02T02:27:34.986Z,0.4964
2023-05-02T02:28:36.431Z,0.4973
2023-05-02T02:29:37.875Z,0.5011
2023-05-02T02:30:39.379Z,0.5082
2023-05-02T02:31:40.657Z,0.5144
2023-05-02T02:32:42.146Z,0.5241
2023-05-02T02:33:43.496Z,0.5193
2023-05-02T02:34:45.056Z,0.5169
2023-05-02T02:35:46.389Z,0.5022
2023-05-02T02:36:47.804Z,0.4950
2023-05-02T02:37:49.185Z,0.4936
2023-05-02T02:38:50.652Z,0.4797
2023-05-02T02:39:52.107Z,0.4781
2023-05-02T02:40:53.514Z,0.4804
2023-05-02T02:41:54.902Z,0.4798
2023-05-02T02:42:56.338Z,0.4778
2023-05-02T02:43:57.805Z,0.4801
2023-05-02T02:44:59.174Z,0.4814
2023-05-02T02:46:00.729Z,0.4815
2023-05-02T02:47:02.000Z,0.4698
2023-05-02T02:48:03.492Z,0.4693
2023-05-02T02:49:04.872Z,0.4726
2023-05-02T02:50:06.365Z,0.4746
2023-05-02T02:51:07.772Z,0.4709
2023-05-02T02:52:09.135Z,0.4627
2023-05-02T02:53:10.511Z,0.4661
2023-05-02T02:54:25.411Z,0.4760
2023-05-02T02:55:13.423Z,0.4868
2023-05-02T02:56:14.899Z,0.4856
2023-05-02T02:57:16.224Z,0.4895
2023-05-02T02:58:17.626Z,0.4950
2023-05-02T02:59:19.067Z,0.4991
2023-05-02T03:00:20.604Z,0.4988
2023-05-02T03:01:21.975Z,0.4876
2023-05-02T03:02:23.386Z,0.4848
2023-05-02T03:03:24.872Z,0.4884
2023-05-02T03:04:26.186Z,0.4908
2023-05-02T03:05:27.679Z,0.4934
2023-05-02T03:06:29.187Z,0.5007
2023-05-02T03:07:30.493Z,0.5000
2023-05-02T03:08:31.905Z,0.4963
2023-05-02T03:09:33.316Z,0.4945
2023-05-02T03:10:34.868Z,0.5029
2023-05-02T03:11:36.192Z,0.5019
2023-05-02T03:12:37.653Z,0.5030
2023-05-02T03:13:39.003Z,0.5109
2023-05-02T03:14:40.508Z,0.5122
2023-05-02T03:15:41.919Z,0.5132
2023-05-02T03:16:43.420Z,0.5124
2023-05-02T03:17:44.821Z,0.5066
2023-05-02T03:18:46.229Z,0.5040
2023-05-02T03:19:47.584Z,0.5106
2023-05-02T03:20:48.959Z,0.5229
2023-05-02T03:21:50.504Z,0.5173
2023-05-02T03:22:51.896Z,0.5156
2023-05-02T03:23:53.264Z,0.5076
2023-05-02T03:24:54.687Z,0.5039
2023-05-02T03:25:56.072Z,0.5051
2023-05-02T03:26:57.568Z,0.4991
2023-05-02T03:27:58.953Z,0.4997
2023-05-02T03:29:00.364Z,0.5036
2023-05-02T03:30:02.084Z,0.5000
2023-05-02T03:31:03.260Z,0.4944
2023-05-02T03:32:04.750Z,0.4930
2023-05-02T03:33:06.100Z,0.4934
2023-05-02T03:34:07.513Z,0.4986
2023-05-02T03:35:08.913Z,0.5020
2023-05-02T03:36:10.338Z,0.4954
2023-05-02T03:37:11.759Z,0.4904
2023-05-02T03:38:13.287Z,0.4921
2023-05-02T03:39:14.594Z,0.4957
2023-05-02T03:40:16.052Z,0.4893
2023-05-02T03:41:17.346Z,0.4841
2023-05-02T03:42:18.910Z,0.4887
2023-05-02T03:43:20.332Z,0.4828
2023-05-02T03:44:21.781Z,0.4829
2023-05-02T03:45:23.152Z,0.4864
2023-05-02T03:46:24.617Z,0.4856
2023-05-02T03:47:26.032Z,0.4920
2023-05-02T03:48:27.496Z,0.4919
2023-05-02T03:49:28.805Z,0.4924
2023-05-02T03:50:30.294Z,0.4999
2023-05-02T03:51:31.604Z,0.5043
2023-05-02T03:52:33.125Z,0.4998
2023-05-02T03:53:34.562Z,0.5008
2023-05-02T03:54:36.040Z,0.4927
2023-05-02T03:55:37.405Z,0.4958
2023-05-02T03:56:40.202Z,0.4873
2023-05-02T03:57:40.259Z,0.4888
2023-05-02T03:58:41.721Z,0.4913
2023-05-02T03:59:43.160Z,0.4951
2023-05-02T04:00:44.552Z,0.5007
2023-05-02T04:01:45.969Z,0.5014
2023-05-02T04:02:47.495Z,0.5056
2023-05-02T04:03:48.900Z,0.5092
2023-05-02T04:04:50.287Z,0.5038
2023-05-02T04:05:51.676Z,0.5023
2023-05-02T04:06:53.185Z,0.4950
2023-05-02T04:07:54.469Z,0.5025
2023-05-02T04:08:56.001Z,0.5022
2023-05-02T04:09:57.439Z,0.5036
2023-05-02T04:10:58.748Z,0.5067
2023-05-02T04:12:00.256Z,0.5127
2023-05-02T04:13:01.716Z,0.5176
2023-05-02T04:14:03.164Z,0.5191
2023-05-02T04:15:04.615Z,0.5268
2023-05-02T04:16:05.982Z,0.5274
2023-05-02T04:17:07.543Z,0.5243
2023-05-02T04:18:08.891Z,0.5265
2023-05-02T04:19:10.829Z,0.5258
2023-05-02T04:20:11.696Z,0.5190
2023-05-02T04:21:13.073Z,0.5056
2023-05-02T04:22:14.478Z,0.5027
2023-05-02T04:23:15.922Z,0.5069
2023-05-02T04:24:17.389Z,0.5211
2023-05-02T04:25:18.867Z,0.5232
2023-05-02T04:26:20.108Z,0.5240
2023-05-02T04:27:21.622Z,0.5176
2023-05-02T04:28:23.113Z,0.5099
2023-05-02T04:29:24.506Z,0.5023
2023-05-02T04:30:25.932Z,0.4998
2023-05-02T04:31:27.406Z,0.4968
2023-05-02T04:32:28.802Z,0.5055
2023-05-02T04:33:30.120Z,0.5019
2023-05-02T04:34:31.591Z,0.5073
2023-05-02T04:35:32.987Z,0.5136
2023-05-02T04:36:34.390Z,0.5144
2023-05-02T04:37:35.783Z,0.5068
2023-05-02T04:38:37.224Z,0.5006
2023-05-02T04:39:38.613Z,0.4975
2023-05-02T04:40:40.120Z,0.4887
2023-05-02T04:41:41.486Z,0.4852
2023-05-02T04:42:42.925Z,0.4869
2023-05-02T04:43:44.358Z,0.4890
2023-05-02T04:44:45.814Z,0.4818
2023-05-02T04:45:47.112Z,0.4850
2023-05-02T04:46:48.613Z,0.4848
2023-05-02T04:47:50.028Z,0.4874
2023-05-02T04:48:51.472Z,0.4831
2023-05-02T04:49:52.875Z,0.4795
2023-05-02T04:50:54.403Z,0.4804
2023-05-02T04:51:55.733Z,0.4782
2023-05-02T04:52:57.121Z,0.4806
2023-05-02T04:53:58.523Z,0.4899
2023-05-02T04:55:00.001Z,0.4994
2023-05-02T04:56:01.351Z,0.5049
2023-05-02T04:57:02.792Z,0.5047
2023-05-02T04:58:04.173Z,0.5023
2023-05-02T04:59:05.617Z,0.4961
2023-05-02T05:00:07.042Z,0.4997
2023-05-02T05:01:08.557Z,0.5044
2023-05-02T05:02:09.991Z,0.5010
2023-05-02T05:03:11.383Z,0.4968
2023-05-02T05:04:12.810Z,0.5055
2023-05-02T05:05:14.215Z,0.5079
2023-05-02T05:06:15.676Z,0.5055
2023-05-02T05:07:17.003Z,0.4943
2023-05-02T05:08:18.366Z,0.4784
2023-05-02T05:09:19.881Z,0.4831
2023-05-02T05:10:21.203Z,0.4838
2023-05-02T05:11:23.375Z,0.4850
2023-05-02T05:12:24.095Z,0.4917
2023-05-02T05:13:25.479Z,0.4789
2023-05-02T05:14:26.902Z,0.4779
2023-05-02T05:15:28.322Z,0.4748
2023-05-02T05:16:29.841Z,0.4716
2023-05-02T05:17:31.240Z,0.4746
2023-05-02T05:18:32.589Z,0.4732
2023-05-02T05:19:34.010Z,0.4807
2023-05-02T05:20:35.480Z,0.4838
2023-05-02T05:21:36.892Z,0.4870
2023-05-02T05:22:38.284Z,0.4785
2023-05-02T05:23:39.630Z,0.4713
2023-05-02T05:24:41.080Z,0.4804
2023-05-02T05:25:44.249Z,0.4838
2023-05-02T05:26:43.949Z,0.4817
2023-05-02T05:27:45.355Z,0.4858
2023-05-02T05:28:46.759Z,0.4867
2023-05-02T05:29:48.072Z,0.4880
2023-05-02T05:30:49.621Z,0.4898
2023-05-02T05:31:51.074Z,0.4966
2023-05-02T05:32:52.437Z,0.5003
2023-05-02T05:33:53.883Z,0.4994
2023-05-02T05:34:55.281Z,0.4986
2023-05-02T05:35:56.712Z,0.5074
2023-05-02T05:36:58.104Z,0.5006
2023-05-02T05:37:59.564Z,0.4949
2023-05-02T05:39:00.921Z,0.4978
2023-05-02T05:40:02.899Z,0.4991
2023-05-02T05:41:03.759Z,0.4984
2023-05-02T05:42:05.264Z,0.4975
2023-05-02T05:43:06.688Z,0.4878
2023-05-02T05:44:08.077Z,0.4821
2023-05-02T05:45:09.445Z,0.4916
2023-05-02T05:46:10.881Z,0.5030
2023-05-02T05:47:12.490Z,0.5003
2023-05-02T05:48:13.846Z,0.4995
2023-05-02T05:49:15.144Z,0.5011
2023-05-02T05:50:16.623Z,0.5104
2023-05-02T05:51:17.989Z,0.5142
2023-05-02T05:52:19.525Z,0.5172
2023-05-02T05:53:20.896Z,0.5200
2023-05-02T05:54:22.298Z,0.5140
2023-05-02T05:55:23.656Z,0.5107
2023-05-02T05:56:25.100Z,0.5123
2023-05-02T05:57:26.529Z,0.5154
2023-05-02T05:58:27.979Z,0.5053
2023-05-02T05:59:29.328Z,0.4988
2023-05-02T06:00:30.777Z,0.5024
2023-05-02T06:01:32.156Z,0.4975
2023-05-02T06:02:33.734Z,0.4911
2023-05-02T06:03:35.222Z,0.4879
2023-05-02T06:04:36.527Z,0.4890
2023-05-02T06:05:37.851Z,0.4964
2023-05-02T06:06:39.361Z,0.4943
2023-05-02T06:07:40.725Z,0.4986
2023-05-02T06:08:42.160Z,0.5022
2023-05-02T06:09:43.597Z,0.5001
2023-05-02T06:10:44.986Z,0.5060
2023-05-02T06:11:46.303Z,0.5087
2023-05-02T06:12:49.255Z,0.5004
2023-05-02T06:13:49.272Z,0.5070
2023-05-02T06:14:50.705Z,0.5069
2023-05-02T06:15:52.061Z,0.5081
2023-05-02T06:16:53.468Z,0.5143
2023-05-02T06:17:55.009Z,0.5151
2023-05-02T06:18:56.364Z,0.5124
2023-05-02T06:19:58.081Z,0.5096
2023-05-02T06:20:59.118Z,0.5004
2023-05-02T06:22:00.602Z,0.4967
2023-05-02T06:23:02.059Z,0.4963
2023-05-02T06:24:03.504Z,0.4944
2023-05-02T06:25:04.900Z,0.5016
2023-05-02T06:26:06.307Z,0.5049
2023-05-02T06:27:07.723Z,0.5057
2023-05-02T06:28:09.135Z,0.5049
2023-05-02T06:29:10.601Z,0.5079
2023-05-02T06:30:11.921Z,0.5100
2023-05-02T06:31:13.477Z,0.5047
2023-05-02T06:32:14.769Z,0.5029
2023-05-02T06:33:16.293Z,0.5027
2023-05-02T06:34:17.689Z,0.5046
2023-05-02T06:35:19.094Z,0.5122
2023-05-02T06:36:20.472Z,0.5126
2023-05-02T06:37:21.864Z,0.5119
2023-05-02T06:38:23.368Z,0.5140
2023-05-02T06:39:24.766Z,0.5133
2023-05-02T06:40:26.205Z,0.5180
2023-05-02T06:41:27.612Z,0.5169
2023-05-02T06:42:29.045Z,0.5237
2023-05-02T06:43:30.480Z,0.5065
2023-05-02T06:44:31.910Z,0.5116
2023-05-02T06:45:33.265Z,0.5086
2023-05-02T06:46:34.769Z,0.5072
2023-05-02T06:47:36.163Z,0.5019
2023-05-02T06:48:37.593Z,0.4993
2023-05-02T06:49:39.025Z,0.4982
2023-05-02T06:50:40.448Z,0.4982
2023-05-02T06:51:41.817Z,0.4910
2023-05-02T06:52:43.252Z,0.4951
2023-05-02T06:53:44.686Z,0.4900
2023-05-02T06:54:46.212Z,0.4869
2023-05-02T06:55:47.509Z,0.4833
2023-05-02T06:56:48.874Z,0.4697
2023-05-02T06:57:50.372Z,0.4695
2023-05-02T06:58:51.848Z,0.4788
2023-05-02T06:59:53.555Z,0.4815
2023-05-02T07:00:54.742Z,0.4889
2023-05-02T07:01:56.038Z,0.4989
2023-05-02T07:02:57.574Z,0.4951
2023-05-02T07:03:58.927Z,0.4860
2023-05-02T07:05:00.334Z,0.4945
2023-05-02T07:06:01.715Z,0.5000
2023-05-02T07:07:03.144Z,0.5103
2023-05-02T07:08:04.530Z,0.5059
2023-05-02T07:09:06.026Z,0.5024
2023-05-02T07:10:07.398Z,0.5093
2023-05-02T07:11:08.872Z,0.5078
2023-05-02T07:12:10.213Z,0.5092
2023-05-02T07:13:11.688Z,0.5003
2023-05-02T07:14:13.026Z,0.4908
2023-05-02T07:15:14.550Z,0.4966
2023-05-02T07:16:15.864Z,0.5049
2023-05-02T07:17:17.359Z,0.5023
2023-05-02T07:18:18.830Z,0.5013
2023-05-02T07:19:20.250Z,0.4923
2023-05-02T07:20:21.698Z,0.4873
2023-05-02T07:21:23.052Z,0.4952
2023-05-02T07:22:24.470Z,0.5000
2023-05-02T07:23:25.845Z,0.4975
2023-05-02T07:24:27.307Z,0.5021
2023-05-02T07:25:28.735Z,0.5085
2023-05-02T07:26:30.173Z,0.5075
2023-05-02T07:27:31.560Z,0.5012
2023-05-02T07:28:33.001Z,0.5040
2023-05-02T07:29:34.412Z,0.5141
2023-05-02T07:30:35.857Z,0.5213
2023-05-02T07:31:37.237Z,0.5232
2023-05-02T07:32:38.681Z,0.5180
2023-05-02T07:33:40.047Z,0.5124
2023-05-02T07:34:41.406Z,0.5031
2023-05-02T07:35:42.980Z,0.5124
2023-05-02T07:36:44.364Z,0.5076
2023-05-02T07:37:45.713Z,0.5037
2023-05-02T07:38:47.199Z,0.4997
2023-05-02T07:39:48.553Z,0.4958
2023-05-02T07:40:50.053Z,0.4960
2023-05-02T07:41:51.456Z,0.5067
2023-05-02T07:42:52.849Z,0.5064
2023-05-02T07:43:54.234Z,0.5076
2023-05-02T07:44:55.689Z,0.5133
2023-05-02T07:45:57.172Z,0.5114
2023-05-02T07:46:58.584Z,0.5062
2023-05-02T07:47:59.957Z,0.5145
2023-05-02T07:49:01.379Z,0.5147
2023-05-02T07:50:03.006Z,0.5195
2023-05-02T07:51:04.289Z,0.5093
2023-05-02T07:52:05.693Z,0.5024
2023-05-02T07:53:07.077Z,0.5075
2023-05-02T07:54:08.480Z,0.5140
2023-05-02T07:55:09.944Z,0.5160
2023-05-02T07:56:11.388Z,0.5095
2023-05-02T07:57:12.807Z,0.5135
2023-05-02T07:58:14.193Z,0.5051
2023-05-02T07:59:15.610Z,0.5103
2023-05-02T08:00:17.017Z,0.5138
2023-05-02T08:01:18.543Z,0.5129
2023-05-02T08:02:20.034Z,0.5014
2023-05-02T08:03:21.451Z,0.5050
2023-05-02T08:04:22.896Z,0.5080
2023-05-02T08:05:24.165Z,0.4993
2023-05-02T08:06:25.689Z,0.4953
2023-05-02T08:07:27.046Z,0.4906
2023-05-02T08:08:28.373Z,0.4927
2023-05-02T08:09:29.845Z,0.4903
2023-05-02T08:10:31.257Z,0.4998
2023-05-02T08:11:32.677Z,0.5012
2023-05-02T08:12:34.180Z,0.4970
2023-05-02T08:13:35.640Z,0.5032
2023-05-02T08:14:36.912Z,0.5045
2023-05-02T08:15:38.585Z,0.4867
2023-05-02T08:16:40.040Z,0.4752
2023-05-02T08:17:41.355Z,0.4741
2023-05-02T08:18:42.674Z,0.4794
2023-05-02T08:19:44.065Z,0.4789
2023-05-02T08:20:45.514Z,0.4809
2023-05-02T08:21:46.960Z,0.4816
2023-05-02T08:22:48.397Z,0.4830
2023-05-02T08:23:49.799Z,0.4763
2023-05-02T08:24:51.175Z,0.4737
2023-05-02T08:25:52.616Z,0.4760
2023-05-02T08:26:54.074Z,0.4682
2023-05-02T08:27:55.493Z,0.4779
2023-05-02T08:28:56.917Z,0.4742
2023-05-02T08:30:00.658Z,0.4757
2023-05-02T08:30:59.697Z,0.4755
2023-05-02T08:32:01.280Z,0.4728
2023-05-02T08:33:02.618Z,0.4750
2023-05-02T08:34:04.009Z,0.4823
2023-05-02T08:35:05.424Z,0.4866
2023-05-02T08:36:06.852Z,0.4853
2023-05-02T08:37:08.299Z,0.4798
2023-05-02T08:38:09.732Z,0.4868
2023-05-02T08:39:11.093Z,0.4899
2023-05-02T08:40:12.550Z,0.4974
2023-05-02T08:41:13.958Z,0.4960
2023-05-02T08:42:15.359Z,0.4948
2023-05-02T08:43:16.797Z,0.4964
2023-05-02T08:44:18.207Z,0.4880
2023-05-02T08:45:19.555Z,0.4929
2023-05-02T08:46:21.011Z,0.5121
2023-05-02T08:47:22.617Z,0.5118
2023-05-02T08:48:23.953Z,0.5014
2023-05-02T08:49:25.323Z,0.4977
2023-05-02T08:50:26.772Z,0.4832
2023-05-02T08:51:28.088Z,0.4815
2023-05-02T08:52:29.506Z,0.4924
2023-05-02T08:53:31.027Z,0.4968
2023-05-02T08:54:32.422Z,0.5053
2023-05-02T08:55:33.748Z,0.5056
2023-05-02T08:56:35.205Z,0.5060
2023-05-02T08:57:36.668Z,0.5072
2023-05-02T08:58:38.154Z,0.5078
2023-05-02T08:59:39.546Z,0.5114
2023-05-02T09:00:40.991Z,0.5078
2023-05-02T09:01:42.371Z,0.4957
2023-05-02T09:02:43.865Z,0.4824
2023-05-02T09:03:45.205Z,0.4903
2023-05-02T09:04:46.769Z,0.5018
2023-05-02T09:05:47.999Z,0.4915
2023-05-02T09:06:49.499Z,0.4831
2023-05-02T09:07:50.832Z,0.4842
2023-05-02T09:08:52.276Z,0.4900
2023-05-02T09:09:53.729Z,0.4844
2023-05-02T09:10:55.213Z,0.4787
2023-05-02T09:11:56.475Z,0.4803
2023-05-02T09:12:57.981Z,0.4761
2023-05-02T09:13:59.388Z,0.4874
2023-05-02T09:15:01.033Z,0.4896
2023-05-02T09:16:02.208Z,0.4728
2023-05-02T09:17:03.844Z,0.4702
2023-05-02T09:18:05.151Z,0.4595
2023-05-02T09:19:06.497Z,0.4648
2023-05-02T09:20:07.913Z,0.4678
2023-05-02T09:21:09.379Z,0.4671
2023-05-02T09:22:10.791Z,0.4611
2023-05-02T09:23:12.249Z,0.4633
2023-05-02T09:24:13.677Z,0.4667
2023-05-02T09:25:15.098Z,0.4610
2023-05-02T09:26:16.464Z,0.4709
2023-05-02T09:27:17.900Z,0.4720
2023-05-02T09:28:19.270Z,0.4691
2023-05-02T09:29:20.714Z,0.4719
2023-05-02T09:30:22.235Z,0.4686
2023-05-02T09:32:24.987Z,0.4706
2023-05-02T09:33:26.467Z,0.4707
2023-05-02T09:34:27.825Z,0.4687
2023-05-02T09:35:29.326Z,0.4649
2023-05-02T09:36:30.727Z,0.4640
2023-05-02T09:37:32.182Z,0.4652
2023-05-02T09:38:33.529Z,0.4675
2023-05-02T09:39:34.973Z,0.4741
2023-05-02T09:40:36.399Z,0.4715
2023-05-02T09:41:37.858Z,0.4684
2023-05-02T09:42:39.230Z,0.4793
2023-05-02T09:43:40.683Z,0.4883
2023-05-02T09:44:42.061Z,0.4913
2023-05-02T09:45:43.592Z,0.4934
2023-05-02T09:46:45.034Z,0.4922
2023-05-02T09:47:46.361Z,0.4983
2023-05-02T09:48:47.776Z,0.5055
2023-05-02T09:49:49.241Z,0.5038
2023-05-02T09:50:50.691Z,0.5076
2023-05-02T09:51:52.153Z,0.5163
2023-05-02T09:52:53.499Z,0.5108
2023-05-02T09:53:54.984Z,0.5036
2023-05-02T09:54:56.363Z,0.5000
2023-05-02T09:55:57.840Z,0.5020
2023-05-02T09:56:59.225Z,0.4939
2023-05-02T09:58:00.594Z,0.4888
2023-05-02T09:59:02.050Z,0.4807
2023-05-02T10:00:03.756Z,0.4880
2023-05-02T10:01:05.002Z,0.4826
2023-05-02T10:02:06.323Z,0.4798
2023-05-02T10:03:07.823Z,0.4861
2023-05-02T10:04:09.658Z,0.4917
2023-05-02T10:05:10.615Z,0.4971
2023-05-02T10:06:12.158Z,0.4948
2023-05-02T10:07:13.568Z,0.4951
2023-05-02T10:08:14.902Z,0.4942
2023-05-02T10:09:19.783Z,0.4971
2023-05-02T10:10:17.707Z,0.4918
2023-05-02T10:11:19.242Z,0.4814
2023-05-02T10:12:20.570Z,0.4761
2023-05-02T10:13:21.988Z,0.4737
2023-05-02T10:14:23.402Z,0.4692
2023-05-02T10:15:24.820Z,0.4575
2023-05-02T10:16:26.282Z,0.4537
2023-05-02T10:17:27.730Z,0.4581
2023-05-02T10:18:29.097Z,0.4648
2023-05-02T10:19:30.492Z,0.4728
2023-05-02T10:20:31.970Z,0.4762
2023-05-02T10:21:33.429Z,0.4788
2023-05-02T10:22:34.835Z,0.4806
2023-05-02T10:23:36.142Z,0.4831
2023-05-02T10:24:37.645Z,0.4820
2023-05-02T10:25:39.050Z,0.4854
2023-05-02T10:26:40.474Z,0.4837
2023-05-02T10:27:41.876Z,0.4783
2023-05-02T10:28:43.407Z,0.4694
2023-05-02T10:29:44.701Z,0.4662
2023-05-02T10:30:46.134Z,0.4662
2023-05-02T10:31:47.603Z,0.4646
2023-05-02T10:32:49.053Z,0.4646
2023-05-02T10:33:50.424Z,0.4673
2023-05-02T10:34:51.831Z,0.4739
2023-05-02T10:35:53.240Z,0.4698
2023-05-02T10:36:54.675Z,0.4665
2023-05-02T10:37:56.105Z,0.4598
2023-05-02T10:38:57.589Z,0.4533
2023-05-02T10:39:58.984Z,0.4597
2023-05-02T10:41:00.337Z,0.4734
2023-05-02T10:42:01.759Z,0.4754
2023-05-02T10:43:03.187Z,0.4734
2023-05-02T10:44:04.676Z,0.4754
2023-05-02T10:45:06.025Z,0.4804
2023-05-02T10:46:07.478Z,0.4811
2023-05-02T10:47:08.834Z,0.4733
2023-05-02T10:48:10.402Z,0.4708
2023-05-02T10:49:11.713Z,0.4703
2023-05-02T10:50:13.167Z,0.4800
2023-05-02T10:51:14.554Z,0.4758
2023-05-02T10:52:15.888Z,0.4710
2023-05-02T10:53:17.395Z,0.4668
2023-05-02T10:54:18.858Z,0.4579
2023-05-02T10:55:20.214Z,0.4564
2023-05-02T10:56:21.679Z,0.4524
2023-05-02T10:57:23.029Z,0.4597
2023-05-02T10:58:24.559Z,0.4621
2023-05-02T10:59:25.924Z,0.4547
2023-05-02T11:00:27.398Z,0.4467
2023-05-02T11:01:28.858Z,0.4438
2023-05-02T11:02:30.227Z,0.4428
2023-05-02T11:03:31.620Z,0.4482
2023-05-02T11:04:33.056Z,0.4565
2023-05-02T11:05:34.427Z,0.4568
2023-05-02T11:06:35.908Z,0.4601
2023-05-02T11:07:37.232Z,0.4672
2023-05-02T11:08:38.617Z,0.4684
2023-05-02T11:09:40.128Z,0.4659
2023-05-02T11:10:41.575Z,0.4692
2023-05-02T11:11:43.299Z,0.4627
2023-05-02T11:12:44.309Z,0.4596
2023-05-02T11:13:45.778Z,0.4563
2023-05-02T11:14:47.314Z,0.4641
2023-05-02T11:15:48.678Z,0.4727
2023-05-02T11:16:50.085Z,0.4710
2023-05-02T11:17:51.448Z,0.4641
2023-05-02T11:18:52.875Z,0.4695
2023-05-02T11:19:54.318Z,0.4638
2023-05-02T11:20:55.765Z,0.4650
2023-05-02T11:21:57.119Z,0.4677
2023-05-02T11:22:58.604Z,0.4639
2023-05-02T11:23:59.933Z,0.4635
2023-05-02T11:25:01.748Z,0.4760
2023-05-02T11:26:02.859Z,0.4760
2023-05-02T11:27:04.245Z,0.4818
2023-05-02T11:28:05.681Z,0.4879
2023-05-02T11:29:07.090Z,0.4820
2023-05-02T11:30:08.491Z,0.4776
2023-05-02T11:31:09.974Z,0.4782
2023-05-02T11:32:11.348Z,0.4696
2023-05-02T11:33:12.808Z,0.4610
2023-05-02T11:34:14.141Z,0.4589
2023-05-02T11:35:15.612Z,0.4680
2023-05-02T11:36:17.152Z,0.4761
2023-05-02T11:37:18.449Z,0.4734
2023-05-02T11:38:19.878Z,0.4752
2023-05-02T11:39:21.302Z,0.4743
2023-05-02T11:40:22.722Z,0.4727
2023-05-02T11:41:24.195Z,0.4748
2023-05-02T11:42:25.554Z,0.4767
2023-05-02T11:43:28.165Z,0.4724
2023-05-02T11:44:28.360Z,0.4693
2023-05-02T11:45:29.884Z,0.4677
2023-05-02T11:46:31.340Z,0.4661
2023-05-02T11:47:32.762Z,0.4588
2023-05-02T11:48:34.161Z,0.4543
2023-05-02T11:49:35.527Z,0.4490
2023-05-02T11:50:37.728Z,0.4456
2023-05-02T11:51:38.426Z,0.4491
2023-05-02T11:52:39.746Z,0.4484
2023-05-02T11:53:41.250Z,0.4561
2023-05-02T11:54:42.613Z,0.4630
2023-05-02T11:55:44.022Z,0.4594
2023-05-02T11:56:45.510Z,0.4633
2023-05-02T11:57:46.977Z,0.4564
2023-05-02T11:58:48.288Z,0.4550
2023-05-02T11:59:49.758Z,0.4469
2023-05-02T12:00:51.147Z,0.4480
2023-05-02T12:01:52.625Z,0.4439
2023-05-02T12:02:54.064Z,0.4494
2023-05-02T12:03:55.531Z,0.4526
2023-05-02T12:04:56.811Z,0.4552
2023-05-02T12:05:58.285Z,0.4469
2023-05-02T12:06:59.708Z,0.4390
2023-05-02T12:08:01.180Z,0.4490
2023-05-02T12:09:02.493Z,0.4479
2023-05-02T12:10:03.974Z,0.4572
2023-05-02T12:11:05.344Z,0.4624
2023-05-02T12:12:06.852Z,0.4499
2023-05-02T12:13:10.103Z,0.4482
2023-05-02T12:14:09.633Z,0.4472
2023-05-02T12:15:11.134Z,0.4515
2023-05-02T12:16:12.618Z,0.4519
2023-05-02T12:17:13.931Z,0.4523
2023-05-02T12:18:15.395Z,0.4522
2023-05-02T12:19:16.823Z,0.4514
2023-05-02T12:20:18.295Z,0.4507
2023-05-02T12:21:19.636Z,0.4477
2023-05-02T12:22:21.121Z,0.4582
2023-05-02T12:23:22.505Z,0.4617
2023-05-02T12:24:23.951Z,0.4688
2023-05-02T12:25:25.337Z,0.4615
2023-05-02T12:26:26.828Z,0.4542
2023-05-02T12:27:28.269Z,0.4591
2023-05-02T12:28:29.638Z,0.4564
2023-05-02T12:29:30.987Z,0.4496
2023-05-02T12:30:32.482Z,0.4531
2023-05-02T12:31:33.901Z,0.4602
2023-05-02T12:32:35.292Z,0.4677
2023-05-02T12:33:36.725Z,0.4660
2023-05-02T12:34:38.163Z,0.4711
2023-05-02T12:35:39.537Z,0.4715
2023-05-02T12:36:40.926Z,0.4682
2023-05-02T12:37:42.406Z,0.4709
2023-05-02T12:38:43.874Z,0.4723
2023-05-02T12:39:45.287Z,0.4723
2023-05-02T12:40:46.665Z,0.4838
2023-05-02T12:41:48.097Z,0.4899
2023-05-02T12:42:49.539Z,0.4951
2023-05-02T12:43:50.954Z,0.4900
2023-05-02T12:44:52.398Z,0.4837
2023-05-02T12:45:53.764Z,0.4820
2023-05-02T12:46:55.223Z,0.4728